createdAt,value
2019-05-03T00:00:39.452Z,999.66
2019-05-03T00:01:52.779Z,999.66
2019-05-03T00:03:04.804Z,999.61
2019-05-03T00:04:14.944Z,999.7
2019-05-03T00:05:25.254Z,999.71
2019-05-03T00:06:35.431Z,999.69
2019-05-03T00:07:45.582Z,999.71
2019-05-03T00:08:55.522Z,999.67
2019-05-03T00:10:06.819Z,999.65
2019-05-03T00:11:18.108Z,999.67
2019-05-03T00:12:29.642Z,999.67
2019-05-03T00:13:42.572Z,999.63
2019-05-03T00:14:53.021Z,999.79
2019-05-03T00:16:03.288Z,999.74
2019-05-03T00:17:14.810Z,999.62
2019-05-03T00:18:24.784Z,999.72
2019-05-03T00:19:35.706Z,999.71
2019-05-03T00:20:47.502Z,999.74
2019-05-03T00:21:57.979Z,999.76
2019-05-03T00:23:09.646Z,999.77
2019-05-03T00:24:19.753Z,999.84
2019-05-03T00:25:32.669Z,999.84
2019-05-03T00:26:44.410Z,999.92
2019-05-03T00:27:54.324Z,999.9
2019-05-03T00:29:04.836Z,999.89
2019-05-03T00:30:15.600Z,999.87
2019-05-03T00:31:27.738Z,999.92
2019-05-03T00:32:39.426Z,999.87
2019-05-03T00:33:51.663Z,999.84
2019-05-03T00:35:02.783Z,999.83
2019-05-03T00:36:14.852Z,999.84
2019-05-03T00:37:25.328Z,999.84
2019-05-03T00:38:35.650Z,999.84
2019-05-03T00:39:47.176Z,999.95
2019-05-03T00:40:57.579Z,999.9
2019-05-03T00:42:09.412Z,999.71
2019-05-03T00:43:19.335Z,999.74
2019-05-03T00:44:31.648Z,999.72
2019-05-03T00:45:42.690Z,999.78
2019-05-03T00:46:54.516Z,999.79
2019-05-03T00:48:05.157Z,999.84
2019-05-03T00:49:15.301Z,999.81
2019-05-03T00:50:25.524Z,999.92
2019-05-03T00:51:37.342Z,999.86
2019-05-03T00:52:47.165Z,999.88
2019-05-03T00:53:58.622Z,999.92
2019-05-03T00:55:15.956Z,999.96
2019-05-03T00:56:27.338Z,999.93
2019-05-03T00:57:37.434Z,999.87
2019-05-03T00:58:48.890Z,999.86
2019-05-03T01:00:02.610Z,999.96
2019-05-03T01:01:12.922Z,999.98
2019-05-03T01:02:22.848Z,999.95
2019-05-03T01:03:34.799Z,999.91
2019-05-03T01:04:44.775Z,999.92
2019-05-03T01:05:54.536Z,999.94
2019-05-03T01:07:05.176Z,1000
2019-05-03T01:08:16.401Z,999.94
2019-05-03T01:09:27.331Z,999.97
2019-05-03T01:10:39.295Z,999.99
2019-05-03T01:11:49.511Z,999.96
2019-05-03T01:13:01.573Z,999.95
2019-05-03T01:14:12.884Z,1000
2019-05-03T01:15:23.149Z,1000.02
2019-05-03T01:16:34.866Z,1000.09
2019-05-03T01:17:45.378Z,1000.01
2019-05-03T01:18:55.425Z,1000.05
2019-05-03T01:20:05.566Z,1000.14
2019-05-03T01:21:17.206Z,1000.1
2019-05-03T01:22:27.666Z,1000.17
2019-05-03T01:23:41.832Z,1000.23
2019-05-03T01:24:53.071Z,1000.34
2019-05-03T01:26:03.249Z,1000.22
2019-05-03T01:27:14.732Z,1000.27
2019-05-03T01:28:24.954Z,1000.22
2019-05-03T01:29:35.018Z,1000.26
2019-05-03T01:30:45.140Z,1000.31
2019-05-03T01:31:56.866Z,1000.24
2019-05-03T01:33:07.599Z,1000.24
2019-05-03T01:34:19.448Z,1000.26
2019-05-03T01:35:29.357Z,1000.23
2019-05-03T01:36:39.691Z,1000.28
2019-05-03T01:37:52.085Z,1000.26
2019-05-03T01:39:03.118Z,1000.23
2019-05-03T01:40:13.315Z,1000.22
2019-05-03T01:41:24.914Z,1000.23
2019-05-03T01:42:35.262Z,1000.3
2019-05-03T01:43:45.309Z,1000.28
2019-05-03T01:44:55.321Z,1000.3
2019-05-03T01:46:06.854Z,1000.36
2019-05-03T01:47:16.763Z,1000.33
2019-05-03T01:48:26.913Z,1000.36
2019-05-03T01:49:37.447Z,1000.37
2019-05-03T01:50:47.886Z,1000.38
2019-05-03T01:51:59.211Z,1000.28
2019-05-03T01:53:09.403Z,1000.35
2019-05-03T01:54:22.823Z,1000.34
2019-05-03T01:55:43.596Z,1000.34
2019-05-03T01:56:58.287Z,1000.4
2019-05-03T01:58:09.816Z,1000.41
2019-05-03T01:59:19.876Z,1000.43
2019-05-03T02:00:31.715Z,1000.52
2019-05-03T02:01:42.799Z,1000.47
2019-05-03T02:02:54.473Z,1000.4
2019-05-03T02:04:04.309Z,1000.53
2019-05-03T02:05:15.123Z,1000.51
2019-05-03T02:06:25.140Z,1000.45
2019-05-03T02:07:37.037Z,1000.51
2019-05-03T02:08:49.185Z,1000.45
2019-05-03T02:09:59.569Z,1000.53
2019-05-03T02:11:12.353Z,1000.57
2019-05-03T02:12:22.727Z,1000.58
2019-05-03T02:13:32.701Z,1000.57
2019-05-03T02:14:43.262Z,1000.57
2019-05-03T02:15:54.564Z,1000.58
2019-05-03T02:17:05.193Z,1000.61
2019-05-03T02:18:15.381Z,1000.64
2019-05-03T02:19:25.273Z,1000.69
2019-05-03T02:20:35.556Z,1000.67
2019-05-03T02:21:46.797Z,1000.69
2019-05-03T02:22:57.591Z,1000.63
2019-05-03T02:24:08.087Z,1000.7
2019-05-03T02:25:19.451Z,1000.62
2019-05-03T02:26:28.979Z,1000.64
2019-05-03T02:27:38.965Z,1000.63
2019-05-03T02:28:49.979Z,1000.65
2019-05-03T02:30:02.945Z,1000.73
2019-05-03T02:31:16.779Z,1000.66
2019-05-03T02:32:28.527Z,1000.71
2019-05-03T02:33:43.157Z,1000.72
2019-05-03T02:34:55.878Z,1000.75
2019-05-03T02:36:08.048Z,1000.82
2019-05-03T02:37:23.806Z,1000.8
2019-05-03T02:38:35.957Z,1000.84
2019-05-03T02:39:48.345Z,1000.87
2019-05-03T02:41:02.672Z,1000.78
2019-05-03T02:42:16.038Z,1000.87
2019-05-03T02:43:27.089Z,1000.74
2019-05-03T02:44:39.099Z,1000.79
2019-05-03T02:45:51.252Z,1000.85
2019-05-03T02:47:06.417Z,1000.86
2019-05-03T02:48:16.657Z,1000.9
2019-05-03T02:49:28.495Z,1000.89
2019-05-03T02:50:40.587Z,1000.89
2019-05-03T02:51:55.211Z,1000.91
2019-05-03T02:53:07.198Z,1000.94
2019-05-03T02:54:18.401Z,1000.97
2019-05-03T02:55:32.053Z,1000.96
2019-05-03T02:56:46.153Z,1000.94
2019-05-03T02:57:58.625Z,1001.04
2019-05-03T02:59:11.024Z,1001.02
2019-05-03T03:00:26.779Z,1001.03
2019-05-03T03:01:39.097Z,1001.04
2019-05-03T03:02:51.444Z,1001.04
2019-05-03T03:04:05.943Z,1001.07
2019-05-03T03:05:18.470Z,1001.08
2019-05-03T03:06:30.571Z,1001.09
2019-05-03T03:07:42.091Z,1001.1
2019-05-03T03:08:56.037Z,1001.06
2019-05-03T03:10:08.386Z,1001.08
2019-05-03T03:11:21.441Z,1001.11
2019-05-03T03:12:36.091Z,1001.05
2019-05-03T03:13:49.234Z,1001.15
2019-05-03T03:15:00.544Z,1001.13
2019-05-03T03:16:20.282Z,1001.12
2019-05-03T03:17:33.636Z,1001.07
2019-05-03T03:18:48.348Z,1001.12
2019-05-03T03:20:01.092Z,1001.11
2019-05-03T03:21:15.644Z,1001.12
2019-05-03T03:22:28.806Z,1001.13
2019-05-03T03:23:41.499Z,1001.18
2019-05-03T03:24:56.598Z,1001.23
2019-05-03T03:26:08.383Z,1001.15
2019-05-03T03:27:45.256Z,1001.16
2019-05-03T03:28:56.456Z,1001.23
2019-05-03T03:30:08.761Z,1001.18
2019-05-03T03:31:22.417Z,1001.18
2019-05-03T03:32:40.614Z,1001.31
2019-05-03T03:34:00.668Z,1001.28
2019-05-03T03:35:21.538Z,1001.32
2019-05-03T03:36:54.258Z,1001.3
2019-05-03T03:38:18.545Z,1001.35
2019-05-03T03:39:31.323Z,1001.3
2019-05-03T03:40:46.292Z,1001.36
2019-05-03T03:42:01.439Z,1001.41
2019-05-03T03:43:15.536Z,1001.44
2019-05-03T03:44:26.526Z,1001.41
2019-05-03T03:45:39.211Z,1001.46
2019-05-03T03:46:50.847Z,1001.44
2019-05-03T03:48:05.991Z,1001.54
2019-05-03T03:49:18.647Z,1001.6
2019-05-03T03:50:28.892Z,1001.54
2019-05-03T03:51:41.238Z,1001.58
2019-05-03T03:52:55.332Z,1001.53
2019-05-03T03:54:07.296Z,1001.56
2019-05-03T03:55:18.178Z,1001.64
2019-05-03T03:56:29.408Z,1001.62
2019-05-03T03:58:08.704Z,1001.66
2019-05-03T03:59:30.049Z,1001.65
2019-05-03T04:00:41.701Z,1001.71
2019-05-03T04:01:56.022Z,1001.66
2019-05-03T04:03:08.717Z,1001.72
2019-05-03T04:04:21.130Z,1001.66
2019-05-03T04:05:36.199Z,1001.69
2019-05-03T04:06:49.509Z,1001.72
2019-05-03T04:08:07.112Z,1001.74
2019-05-03T04:09:19.171Z,1001.77
2019-05-03T04:10:30.914Z,1001.71
2019-05-03T04:11:42.953Z,1001.78
2019-05-03T04:12:55.844Z,1001.8
2019-05-03T04:14:08.368Z,1001.79
2019-05-03T04:15:20.851Z,1001.78
2019-05-03T04:16:36.206Z,1001.81
2019-05-03T04:17:48.354Z,1001.84
2019-05-03T04:19:01.728Z,1001.9
2019-05-03T04:20:16.097Z,1001.93
2019-05-03T04:21:28.665Z,1001.89
2019-05-03T04:22:41.119Z,1001.88
2019-05-03T04:23:55.466Z,1002
2019-05-03T04:25:06.554Z,1001.91
2019-05-03T04:26:18.350Z,1002
2019-05-03T04:27:36.609Z,1002.02
2019-05-03T04:28:48.548Z,1002.06
2019-05-03T04:30:01.268Z,1002.01
2019-05-03T04:31:15.202Z,1002.05
2019-05-03T04:32:28.877Z,1002.04
2019-05-03T04:33:41.267Z,1002.09
2019-05-03T04:34:52.297Z,1002.11
2019-05-03T04:36:05.975Z,1002.14
2019-05-03T04:37:18.710Z,1002.11
2019-05-03T04:38:31.479Z,1002.12
2019-05-03T04:39:46.096Z,1002.18
2019-05-03T04:40:58.584Z,1002.19
2019-05-03T04:42:11.279Z,1002.07
2019-05-03T04:43:26.578Z,1002.21
2019-05-03T04:44:38.568Z,1002.16
2019-05-03T04:45:50.768Z,1002.24
2019-05-03T04:47:07.278Z,1002.24
2019-05-03T04:48:18.652Z,1002.18
2019-05-03T04:49:30.583Z,1002.29
2019-05-03T04:50:41.525Z,1002.23
2019-05-03T04:51:56.013Z,1002.34
2019-05-03T04:53:08.758Z,1002.32
2019-05-03T04:54:21.347Z,1002.35
2019-05-03T04:55:35.859Z,1002.37
2019-05-03T04:56:47.390Z,1002.32
2019-05-03T04:57:58.874Z,1002.33
2019-05-03T04:59:10.091Z,1002.3
2019-05-03T05:00:21.290Z,1002.32
2019-05-03T05:01:36.170Z,1002.26
2019-05-03T05:02:48.874Z,1002.23
2019-05-03T05:04:00.495Z,1002.29
2019-05-03T05:05:15.176Z,1002.4
2019-05-03T05:06:26.893Z,1002.33
2019-05-03T05:07:37.946Z,1002.34
2019-05-03T05:08:48.628Z,1002.32
2019-05-03T05:10:00.217Z,1002.37
2019-05-03T05:11:15.548Z,1002.36
2019-05-03T05:12:26.874Z,1002.36
2019-05-03T05:13:38.479Z,1002.39
2019-05-03T05:14:50.899Z,1002.39
2019-05-03T05:16:06.132Z,1002.47
2019-05-03T05:17:18.814Z,1002.53
2019-05-03T05:18:31.476Z,1002.4
2019-05-03T05:19:44.549Z,1002.4
2019-05-03T05:20:55.450Z,1002.37
2019-05-03T05:22:07.406Z,1002.39
2019-05-03T05:23:18.216Z,1002.43
2019-05-03T05:24:30.294Z,1002.44
2019-05-03T05:25:42.254Z,1002.45
2019-05-03T05:26:52.270Z,1002.52
2019-05-03T05:28:04.604Z,1002.52
2019-05-03T05:29:15.522Z,1002.55
2019-05-03T05:30:25.888Z,1002.54
2019-05-03T05:31:38.098Z,1002.56
2019-05-03T05:32:49.864Z,1002.52
2019-05-03T05:34:00.558Z,1002.61
2019-05-03T05:35:15.452Z,1002.6
2019-05-03T05:36:27.602Z,1002.74
2019-05-03T05:37:37.405Z,1002.66
2019-05-03T05:38:47.282Z,1002.64
2019-05-03T05:39:58.072Z,1002.62
2019-05-03T05:41:08.154Z,1002.64
2019-05-03T05:42:18.297Z,1002.69
2019-05-03T05:43:29.976Z,1002.72
2019-05-03T05:44:40.985Z,1002.67
2019-05-03T05:45:52.950Z,1002.67
2019-05-03T05:47:07.902Z,1002.67
2019-05-03T05:48:17.891Z,1002.73
2019-05-03T05:49:29.530Z,1002.76
2019-05-03T05:50:40.354Z,1002.67
2019-05-03T05:51:54.192Z,1002.68
2019-05-03T05:53:05.482Z,1002.75
2019-05-03T05:54:15.776Z,1002.71
2019-05-03T05:55:27.442Z,1002.75
2019-05-03T05:56:39.166Z,1002.76
2019-05-03T05:58:01.761Z,1002.77
2019-05-03T05:59:16.220Z,1002.8
2019-05-03T06:00:27.714Z,1002.75
2019-05-03T06:01:38.835Z,1002.75
2019-05-03T06:02:50.850Z,1002.75
2019-05-03T06:04:02.755Z,1002.76
2019-05-03T06:05:15.938Z,1002.76
2019-05-03T06:06:27.956Z,1002.83
2019-05-03T06:07:40.006Z,1002.82
2019-05-03T06:08:51.922Z,1002.86
2019-05-03T06:10:02.388Z,1002.83
2019-05-03T06:11:16.882Z,1002.94
2019-05-03T06:12:28.641Z,1002.78
2019-05-03T06:13:40.458Z,1002.81
2019-05-03T06:14:51.852Z,1002.81
2019-05-03T06:16:02.101Z,1002.86
2019-05-03T06:17:14.511Z,1002.85
2019-05-03T06:18:25.186Z,1002.84
2019-05-03T06:19:35.853Z,1002.88
2019-05-03T06:20:47.490Z,1002.91
2019-05-03T06:21:59.572Z,1002.91
2019-05-03T06:23:10.145Z,1002.87
2019-05-03T06:24:21.784Z,1002.86
2019-05-03T06:25:32.615Z,1002.87
2019-05-03T06:26:44.306Z,1002.86
2019-05-03T06:27:55.129Z,1002.87
2019-05-03T06:29:21.547Z,1002.93
2019-05-03T06:30:32.475Z,1002.97
2019-05-03T06:31:44.328Z,1002.76
2019-05-03T06:32:55.580Z,1002.98
2019-05-03T06:34:05.627Z,1002.93
2019-05-03T06:35:17.805Z,1002.93
2019-05-03T06:36:27.292Z,1002.98
2019-05-03T06:37:38.253Z,1002.95
2019-05-03T06:38:48.838Z,1002.99
2019-05-03T06:40:00.023Z,1003.05
2019-05-03T06:41:16.291Z,1002.99
2019-05-03T06:42:27.637Z,1002.97
2019-05-03T06:43:52.059Z,1002.95
2019-05-03T06:45:10.169Z,1002.95
2019-05-03T06:46:29.237Z,1003
2019-05-03T06:47:45.191Z,1003.08
2019-05-03T06:49:00.980Z,1003.06
2019-05-03T06:50:19.371Z,1003.07
2019-05-03T06:51:35.329Z,1003.03
2019-05-03T06:52:55.020Z,1003.09
2019-05-03T06:54:20.207Z,1002.99
2019-05-03T06:55:39.901Z,1003.15
2019-05-03T06:57:00.062Z,1003.13
2019-05-03T06:58:30.297Z,1003.08
2019-05-03T06:59:45.400Z,1003.25
2019-05-03T07:00:55.521Z,1003.12
2019-05-03T07:02:07.438Z,1003.11
2019-05-03T07:03:17.752Z,1003.17
2019-05-03T07:04:28.112Z,1003.26
2019-05-03T07:05:39.924Z,1003.22
2019-05-03T07:06:50.268Z,1003.2
2019-05-03T07:08:00.402Z,1003.21
2019-05-03T07:09:12.124Z,1003.17
2019-05-03T07:10:21.866Z,1003.29
2019-05-03T07:11:34.705Z,1003.2
2019-05-03T07:12:45.642Z,1003.17
2019-05-03T07:13:57.598Z,1003.17
2019-05-03T07:15:07.956Z,1003.18
2019-05-03T07:16:19.757Z,1003.28
2019-05-03T07:17:30.631Z,1003.26
2019-05-03T07:18:42.607Z,1003.15
2019-05-03T07:19:56.995Z,1003.17
2019-05-03T07:21:07.295Z,1003.16
2019-05-03T07:22:17.899Z,1003.28
2019-05-03T07:23:29.399Z,1003.16
2019-05-03T07:24:40.834Z,1003.16
2019-05-03T07:25:55.288Z,1003.24
2019-05-03T07:27:05.916Z,1003.15
2019-05-03T07:28:16.383Z,1003.22
2019-05-03T07:29:27.738Z,1003.13
2019-05-03T07:30:39.498Z,1003.14
2019-05-03T07:31:50.708Z,1003.06
2019-05-03T07:33:02.461Z,1003.18
2019-05-03T07:34:12.525Z,1003.18
2019-05-03T07:35:25.303Z,1003.2
2019-05-03T07:36:35.851Z,1003.19
2019-05-03T07:37:47.611Z,1003.18
2019-05-03T07:38:58.336Z,1003.19
2019-05-03T07:40:08.017Z,1003.27
2019-05-03T07:41:19.545Z,1003.15
2019-05-03T07:42:36.057Z,1003.05
2019-05-03T07:43:47.794Z,1003.1
2019-05-03T07:44:57.919Z,1003.15
2019-05-03T07:46:10.113Z,1003.14
2019-05-03T07:47:24.100Z,1003.11
2019-05-03T07:48:35.494Z,1003.14
2019-05-03T07:49:46.213Z,1003.28
2019-05-03T07:50:57.679Z,1003.07
2019-05-03T07:52:08.461Z,1003.15
2019-05-03T07:53:19.815Z,1003.13
2019-05-03T07:54:30.498Z,1003.17
2019-05-03T07:55:42.415Z,1003.27
2019-05-03T07:56:55.201Z,1003.22
2019-05-03T07:58:05.693Z,1003.19
2019-05-03T07:59:17.881Z,1003.1
2019-05-03T08:00:28.023Z,1003.18
2019-05-03T08:01:39.676Z,1003.27
2019-05-03T08:02:50.845Z,1003.17
2019-05-03T08:04:02.396Z,1003.23
2019-05-03T08:05:12.869Z,1003.15
2019-05-03T08:06:25.107Z,1003.12
2019-05-03T08:07:37.406Z,1002.99
2019-05-03T08:08:49.675Z,1003.06
2019-05-03T08:09:59.865Z,1003.06
2019-05-03T08:11:10.725Z,1003.16
2019-05-03T08:12:22.171Z,1003.21
2019-05-03T08:13:32.413Z,1003.17
2019-05-03T08:14:45.177Z,1003.21
2019-05-03T08:15:55.956Z,1003.14
2019-05-03T08:17:06.493Z,1003.25
2019-05-03T08:18:18.129Z,1003.22
2019-05-03T08:19:28.955Z,1003.31
2019-05-03T08:20:40.731Z,1003.24
2019-05-03T08:21:52.775Z,1003.42
2019-05-03T08:23:05.472Z,1003.22
2019-05-03T08:24:35.363Z,1003.33
2019-05-03T08:25:45.578Z,1003.3
2019-05-03T08:27:01.006Z,1003.3
2019-05-03T08:28:14.557Z,1003.21
2019-05-03T08:29:25.131Z,1003.27
2019-05-03T08:30:35.801Z,1003.26
2019-05-03T08:31:47.365Z,1003.27
2019-05-03T08:32:57.511Z,1003.27
2019-05-03T08:34:08.415Z,1003.22
2019-05-03T08:35:19.988Z,1003.33
2019-05-03T08:36:31.977Z,1003.37
2019-05-03T08:37:42.598Z,1003.24
2019-05-03T08:38:56.299Z,1003.27
2019-05-03T08:40:08.090Z,1003.28
2019-05-03T08:41:18.519Z,1003.2
2019-05-03T08:42:29.955Z,1003.21
2019-05-03T08:43:40.428Z,1003.32
2019-05-03T08:44:52.239Z,1003.23
2019-05-03T08:46:04.977Z,1003.22
2019-05-03T08:47:15.601Z,1003.25
2019-05-03T08:48:27.673Z,1003.41
2019-05-03T08:49:38.111Z,1003.37
2019-05-03T08:50:50.251Z,1003.33
2019-05-03T08:52:00.739Z,1003.15
2019-05-03T08:53:15.218Z,1003.33
2019-05-03T08:54:28.547Z,1003.42
2019-05-03T08:55:40.050Z,1003.31
2019-05-03T08:56:50.272Z,1003.23
2019-05-03T08:58:01.031Z,1003.3
2019-05-03T08:59:12.666Z,1003.21
2019-05-03T09:00:38.689Z,1003.3
2019-05-03T09:01:50.351Z,1003.53
2019-05-03T09:03:18.157Z,1003.42
2019-05-03T09:04:37.105Z,1003.26
2019-05-03T09:05:51.797Z,1003.29
2019-05-03T09:07:05.544Z,1003.32
2019-05-03T09:08:17.752Z,1003.35
2019-05-03T09:09:30.046Z,1003.3
2019-05-03T09:10:42.422Z,1003.2
2019-05-03T09:11:55.611Z,1003.18
2019-05-03T09:13:07.572Z,1003.13
2019-05-03T09:14:20.070Z,1003.3
2019-05-03T09:15:50.832Z,1003.21
2019-05-03T09:17:04.925Z,1003.13
2019-05-03T09:18:17.420Z,1003.17
2019-05-03T09:19:28.517Z,1003.2
2019-05-03T09:20:39.726Z,1003.19
2019-05-03T09:21:50.183Z,1003.18
2019-05-03T09:23:02.477Z,1003.19
2019-05-03T09:24:15.292Z,1003.15
2019-05-03T09:25:27.380Z,1003.19
2019-05-03T09:26:38.475Z,1003.3
2019-05-03T09:27:49.991Z,1003.27
2019-05-03T09:29:00.528Z,1003.14
2019-05-03T09:30:10.844Z,1003.13
2019-05-03T09:31:21.964Z,1003.11
2019-05-03T09:32:32.393Z,1003.14
2019-05-03T09:33:42.411Z,1003.14
2019-05-03T09:34:55.221Z,1003.16
2019-05-03T09:36:06.063Z,1003.37
2019-05-03T09:37:17.644Z,1003.26
2019-05-03T09:38:27.959Z,1003.17
2019-05-03T09:39:40.930Z,1003.08
2019-05-03T09:40:52.209Z,1003.29
2019-05-03T09:42:04.175Z,1003.22
2019-05-03T09:43:16.026Z,1003.13
2019-05-03T09:44:28.018Z,1003.12
2019-05-03T09:45:40.186Z,1003.06
2019-05-03T09:46:51.047Z,1003.13
2019-05-03T09:48:02.160Z,1003.08
2019-05-03T09:49:16.551Z,1003.08
2019-05-03T09:50:28.294Z,1003.15
2019-05-03T09:51:38.944Z,1003.22
2019-05-03T09:52:49.188Z,1003.19
2019-05-03T09:54:00.718Z,1003.21
2019-05-03T09:55:15.322Z,1003.29
2019-05-03T09:56:25.961Z,1003.22
2019-05-03T09:57:36.989Z,1003.16
2019-05-03T09:58:47.116Z,1003.16
2019-05-03T10:00:00.007Z,1003.22
2019-05-03T10:01:12.485Z,1003.18
2019-05-03T10:02:24.602Z,1003.15
2019-05-03T10:03:36.529Z,1003.3
2019-05-03T10:04:48.149Z,1003.22
2019-05-03T10:06:00.572Z,1003.17
2019-05-03T10:07:10.615Z,1003.17
2019-05-03T10:08:25.353Z,1003.14
2019-05-03T10:09:36.325Z,1003.19
2019-05-03T10:10:47.689Z,1003.18
2019-05-03T10:11:57.659Z,1003.11
2019-05-03T10:13:14.099Z,1003.16
2019-05-03T10:14:32.493Z,1003.12
2019-05-03T10:15:42.207Z,1003.19
2019-05-03T10:16:54.708Z,1003.22
2019-05-03T10:18:10.702Z,1003.29
2019-05-03T10:19:33.723Z,1003.19
2019-05-03T10:20:50.398Z,1003.25
2019-05-03T10:22:01.525Z,1003.32
2019-05-03T10:23:14.860Z,1003.36
2019-05-03T10:24:25.310Z,1003.41
2019-05-03T10:25:35.826Z,1003.41
2019-05-03T10:26:48.170Z,1003.26
2019-05-03T10:28:00.422Z,1003.38
2019-05-03T10:29:11.927Z,1003.33
2019-05-03T10:30:22.906Z,1003.31
2019-05-03T10:31:32.646Z,1003.29
2019-05-03T10:32:45.364Z,1003.39
2019-05-03T10:33:55.320Z,1003.24
2019-05-03T10:35:06.105Z,1003.3
2019-05-03T10:36:18.202Z,1003.34
2019-05-03T10:37:30.302Z,1003.32
2019-05-03T10:38:41.130Z,1003.28
2019-05-03T10:39:56.006Z,1003.28
2019-05-03T10:41:10.583Z,1003.3
2019-05-03T10:42:20.547Z,1003.24
2019-05-03T10:43:31.573Z,1003.29
2019-05-03T10:44:45.561Z,1003.27
2019-05-03T10:45:56.059Z,1003.43
2019-05-03T10:47:07.947Z,1003.42
2019-05-03T10:48:19.848Z,1003.41
2019-05-03T10:49:30.345Z,1003.31
2019-05-03T10:50:40.527Z,1003.27
2019-05-03T10:51:54.805Z,1003.25
2019-05-03T10:53:06.147Z,1003.3
2019-05-03T10:54:18.227Z,1003.17
2019-05-03T10:55:27.936Z,1003.24
2019-05-03T10:56:38.712Z,1003.28
2019-05-03T10:57:50.324Z,1003.25
2019-05-03T10:59:01.843Z,1003.23
2019-05-03T11:00:39.229Z,1003.12
2019-05-03T11:02:01.978Z,1003.16
2019-05-03T11:03:12.199Z,1003.18
2019-05-03T11:04:22.185Z,1003.28
2019-05-03T11:05:32.164Z,1003.29
2019-05-03T11:06:41.936Z,1003.31
2019-05-03T11:07:55.701Z,1003.28
2019-05-03T11:09:05.871Z,1003.31
2019-05-03T11:10:18.235Z,1003.28
2019-05-03T11:11:28.198Z,1003.22
2019-05-03T11:12:40.410Z,1003.27
2019-05-03T11:13:50.154Z,1003.21
2019-05-03T11:15:00.110Z,1003.2
2019-05-03T11:16:10.096Z,1003.26
2019-05-03T11:17:20.229Z,1003.22
2019-05-03T11:18:30.952Z,1003.13
2019-05-03T11:19:42.203Z,1003.14
2019-05-03T11:20:55.147Z,1003.14
2019-05-03T11:22:05.950Z,1003.05
2019-05-03T11:23:17.255Z,1003.12
2019-05-03T11:24:28.065Z,1003.04
2019-05-03T11:25:40.058Z,1003.09
2019-05-03T11:26:50.386Z,1003.09
2019-05-03T11:28:04.749Z,1003.06
2019-05-03T11:29:15.751Z,1003.06
2019-05-03T11:30:27.649Z,1003.18
2019-05-03T11:31:38.530Z,1003.3
2019-05-03T11:32:49.818Z,1003.15
2019-05-03T11:34:00.886Z,1003.18
2019-05-03T11:35:11.728Z,1003.08
2019-05-03T11:36:22.404Z,1003.04
2019-05-03T11:37:35.356Z,1003.11
2019-05-03T11:38:45.876Z,1003.1
2019-05-03T11:39:56.377Z,1003.18
2019-05-03T11:41:07.988Z,1003
2019-05-03T11:42:35.192Z,1003.12
2019-05-03T11:43:47.588Z,1003.26
2019-05-03T11:44:57.566Z,1003.15
2019-05-03T11:46:07.267Z,1003.13
2019-05-03T11:47:17.670Z,1003.01
2019-05-03T11:48:30.737Z,1003.05
2019-05-03T11:49:42.495Z,1003.07
2019-05-03T11:50:55.109Z,1002.99
2019-05-03T11:52:06.439Z,1003.09
2019-05-03T11:53:18.836Z,1003.09
2019-05-03T11:54:30.495Z,1003.04
2019-05-03T11:55:40.982Z,1003.12
2019-05-03T11:56:55.784Z,1003.18
2019-05-03T11:58:07.889Z,1003.2
2019-05-03T11:59:17.560Z,1003.15
2019-05-03T12:00:29.326Z,1003.17
2019-05-03T12:01:38.778Z,1003.33
2019-05-03T12:02:52.206Z,1003.12
2019-05-03T12:04:05.414Z,1003.12
2019-05-03T12:05:15.873Z,1003.08
2019-05-03T12:06:27.158Z,1003.09
2019-05-03T12:07:40.212Z,1003.11
2019-05-03T12:08:50.850Z,1003.08
2019-05-03T12:10:02.852Z,1003.27
2019-05-03T12:12:01.906Z,1003.14
2019-05-03T12:13:12.302Z,1003.15
2019-05-03T12:14:25.171Z,1003.15
2019-05-03T12:15:35.369Z,1003.25
2019-05-03T12:17:17.745Z,1003.18
2019-05-03T12:18:53.936Z,1003.17
2019-05-03T12:20:27.445Z,1003.06
2019-05-03T12:21:47.689Z,1003.09
2019-05-03T12:23:01.896Z,1003.05
2019-05-03T12:24:17.681Z,1003.14
2019-05-03T12:25:36.013Z,1003.18
2019-05-03T12:26:52.423Z,1003.16
2019-05-03T12:28:05.795Z,1003.21
2019-05-03T12:29:18.104Z,1003.17
2019-05-03T12:30:29.499Z,1003.2
2019-05-03T12:31:40.844Z,1003.18
2019-05-03T12:32:55.273Z,1003.04
2019-05-03T12:34:06.541Z,1003.03
2019-05-03T12:35:18.785Z,1003.02
2019-05-03T12:36:29.961Z,1003.12
2019-05-03T12:37:46.376Z,1002.96
2019-05-03T12:38:58.342Z,1003.08
2019-05-03T12:40:31.026Z,1003.13
2019-05-03T12:41:42.215Z,1003.07
2019-05-03T12:42:55.539Z,1003.09
2019-05-03T12:44:06.669Z,1003.05
2019-05-03T12:45:18.158Z,1002.99
2019-05-03T12:46:29.803Z,1002.99
2019-05-03T12:47:40.656Z,1002.95
2019-05-03T12:48:52.840Z,1002.95
2019-05-03T12:50:01.809Z,1003.02
2019-05-03T12:51:14.926Z,1003.03
2019-05-03T12:52:26.824Z,1002.96
2019-05-03T12:53:52.610Z,1003
2019-05-03T12:55:05.286Z,1002.96
2019-05-03T12:56:22.493Z,1002.98
2019-05-03T12:57:41.096Z,1003.05
2019-05-03T12:58:50.845Z,1003.03
2019-05-03T13:00:04.892Z,1003
2019-05-03T13:01:16.136Z,1002.95
2019-05-03T13:02:41.165Z,1002.89
2019-05-03T13:03:52.274Z,1002.96
2019-05-03T13:05:04.727Z,1002.98
2019-05-03T13:06:15.785Z,1002.89
2019-05-03T13:07:25.957Z,1002.87
2019-05-03T13:08:37.741Z,1002.85
2019-05-03T13:09:48.547Z,1002.9
2019-05-03T13:10:59.773Z,1002.91
2019-05-03T13:12:10.571Z,1002.87
2019-05-03T13:13:22.350Z,1002.86
2019-05-03T13:14:34.579Z,1002.88
2019-05-03T13:15:45.939Z,1002.81
2019-05-03T13:16:57.855Z,1002.83
2019-05-03T13:18:11.645Z,1002.78
2019-05-03T13:19:25.819Z,1002.78
2019-05-03T13:20:37.845Z,1002.72
2019-05-03T13:21:48.321Z,1002.68
2019-05-03T13:22:58.559Z,1002.72
2019-05-03T13:24:22.730Z,1002.73
2019-05-03T13:25:35.651Z,1002.72
2019-05-03T13:26:47.563Z,1002.7
2019-05-03T13:27:57.554Z,1002.85
2019-05-03T13:29:08.121Z,1002.81
2019-05-03T13:30:20.451Z,1002.81
2019-05-03T13:31:34.979Z,1002.86
2019-05-03T13:33:02.636Z,1002.76
2019-05-03T13:34:15.955Z,1002.82
2019-05-03T13:35:27.709Z,1002.8
2019-05-03T13:36:38.134Z,1002.75
2019-05-03T13:37:48.669Z,1002.78
2019-05-03T13:39:11.245Z,1002.79
2019-05-03T13:40:26.905Z,1002.75
2019-05-03T13:41:38.587Z,1002.87
2019-05-03T13:42:57.020Z,1002.81
2019-05-03T13:44:15.685Z,1002.82
2019-05-03T13:45:27.594Z,1002.8
2019-05-03T13:46:37.941Z,1002.82
2019-05-03T13:47:49.869Z,1002.88
2019-05-03T13:49:00.331Z,1002.81
2019-05-03T13:50:11.724Z,1002.93
2019-05-03T13:51:25.363Z,1002.63
2019-05-03T13:52:36.078Z,1002.91
2019-05-03T13:53:48.090Z,1002.83
2019-05-03T13:54:59.959Z,1002.86
2019-05-03T13:56:10.718Z,1002.84
2019-05-03T13:57:24.878Z,1002.93
2019-05-03T13:58:36.095Z,1002.87
2019-05-03T13:59:47.447Z,1002.88
2019-05-03T14:00:58.343Z,1002.87
2019-05-03T14:02:14.564Z,1002.85
2019-05-03T14:03:26.903Z,1002.84
2019-05-03T14:04:49.284Z,1002.79
2019-05-03T14:06:00.957Z,1002.85
2019-05-03T14:07:15.737Z,1002.81
2019-05-03T14:08:25.692Z,1002.79
2019-05-03T14:09:37.795Z,1002.77
2019-05-03T14:10:47.957Z,1002.84
2019-05-03T14:11:58.545Z,1002.8
2019-05-03T14:13:12.299Z,1002.68
2019-05-03T14:14:22.251Z,1002.71
2019-05-03T14:15:35.419Z,1002.83
2019-05-03T14:16:45.869Z,1002.78
2019-05-03T14:17:57.645Z,1002.75
2019-05-03T14:19:08.892Z,1002.79
2019-05-03T14:20:19.915Z,1002.78
2019-05-03T14:21:31.517Z,1002.82
2019-05-03T14:22:41.991Z,1002.74
2019-05-03T14:23:51.956Z,1002.98
2019-05-03T14:25:01.928Z,1002.76
2019-05-03T14:26:12.005Z,1002.86
2019-05-03T14:27:25.374Z,1002.77
2019-05-03T14:28:37.658Z,1002.78
2019-05-03T14:29:48.055Z,1002.62
2019-05-03T14:30:59.810Z,1002.75
2019-05-03T14:32:10.215Z,1002.7
2019-05-03T14:33:36.393Z,1002.7
2019-05-03T14:34:47.769Z,1002.62
2019-05-03T14:35:59.973Z,1002.73
2019-05-03T14:37:10.578Z,1002.66
2019-05-03T14:38:20.534Z,1002.68
2019-05-03T14:39:33.011Z,1002.61
2019-05-03T14:40:44.849Z,1002.58
2019-05-03T14:41:57.827Z,1002.61
2019-05-03T14:43:09.945Z,1002.7
2019-05-03T14:44:20.466Z,1002.7
2019-05-03T14:45:34.823Z,1002.64